ADDS METAR Data INFO
IDs: Format: Raw Decoded Include TAF

Data at: 0840 UTC 21 Oct 2017

KLIT 210753Z 12004KT 10SM BKN120 BKN250 16/14 A3004 RMK AO2 SLP173 T01560144
KLIT 210653Z 14003KT 10SM SCT120 SCT250 14/14 A3005 RMK AO2 SLP176 T01440139
KLIT 210553Z 00000KT 10SM SCT120 SCT250 14/14 A3005 RMK AO2 SLP177 T01440139 10200 20139 402390100 58003
KLIT 210453Z 00000KT 10SM SCT120 SCT250 16/14 A3006 RMK AO2 SLP178 T01610139
KLIT 210353Z 00000KT 10SM SCT120 BKN250 17/14 A3006 RMK AO2 SLP180 T01720139
KLIT 210253Z 12004KT 10SM SCT120 BKN250 16/14 A3006 RMK AO2 SLP180 T01560139 58004
KLIT 210153Z 00000KT 10SM BKN120 BKN250 17/16 A3006 RMK AO2 SLP181 T01720156
KLIT 210053Z 20004KT 10SM FEW050 BKN120 OVC250 19/16 A3008 RMK AO2 SLP187 BINOVC T01940161
KLIT 202353Z 15005KT 10SM FEW040 BKN120 OVC200 20/17 A3007 RMK AO2 SLP185 T02000167 10239 20200 56005
KLIT 202253Z 18003KT 10SM FEW050 SCT090 BKN120 OVC200 21/16 A3008 RMK AO2 SLP185 BINOVC T02110161
KLIT 202153Z 16004KT 10SM FEW065 SCT100 OVC250 23/16 A3008 RMK AO2 SLP186 BINOVC T02280156
KLIT 202053Z 16005KT 10SM FEW060 BKN110 OVC250 23/16 A3009 RMK AO2 SLP189 T02280156 56025
KLIT 201953Z 16006KT 10SM SCT060 BKN120 OVC250 23/16 A3012 RMK AO2 SLP199 T02280161
KLIT 201853Z VRB04KT 10SM FEW060 BKN120 OVC250 23/16 A3012 RMK AO2 SLP200 T02330161
KLIT 201753Z 14007KT 10SM BKN100 OVC250 23/16 A3016 RMK AO2 SLP215 T02280156 10233 20100 58019
KLIT 201653Z 14008KT 10SM BKN100 BKN250 22/16 A3019 RMK AO2 SLP225 T02220156
KLIT 201553Z 17008KT 10SM FEW050 BKN100 OVC250 19/15 A3020 RMK AO2 SLP229 T01940150
KLIT 201453Z VRB03KT 7SM BKN100 OVC250 16/14 A3022 RMK AO2 SLP234 T01610144 50004
KLIT 201353Z 00000KT 7SM FEW040 BKN080 OVC250 13/13 A3022 RMK AO2 SLP236 T01330128
KLIT 201253Z 00000KT 6SM BR MIFG SCT080 BKN250 11/11 A3020 RMK AO2 SLP229 T01110111 $
KLIT 201153Z 00000KT 7SM BKN250 11/11 A3021 RMK AO2 SLP230 T01060106 10117 20100 53008 $
KLIT 201053Z 00000KT 7SM BKN250 11/11 A3019 RMK AO2 SLP225 T01060106 $
KLIT 200953Z 00000KT 7SM BKN250 11/11 A3019 RMK AO2 SLP225 T01110111 $
KLIT 200904Z 00000KT 10SM CLR 11/11 A3018 RMK AO2 T01060106 $
KLIT 200859Z COR 00000KT 10SM CLR 10/10 A3018 RMK AO2 T01000100 $
KLIT 200853Z 00000KT 10SM FEW150 10/10 A3018 RMK AO2 SLP222 T01000100 58001 $
KLIT 200753Z 00000KT 9SM BKN250 11/11 A3019 RMK AO2 SLP224 T01110111
KLIT 200653Z 00000KT 10SM SCT250 11/11 A3019 RMK AO2 SLP224 T01060106
KLIT 200553Z 00000KT 10SM SCT250 12/11 A3019 RMK AO2 SLP223 T01170111 10200 20117 402610083 50000
KLIT 200453Z 00000KT 10SM SCT250 13/12 A3019 RMK AO2 SLP224 T01330117
KLIT 200353Z 00000KT 10SM SCT250 16/12 A3019 RMK AO2 SLP226 T01560117
KLIT 200253Z 15003KT 10SM SCT250 16/13 A3019 RMK AO2 SLP223 T01610128 51009
KLIT 200153Z 00000KT 10SM BKN250 17/13 A3018 RMK AO2 SLP220 T01720133
KLIT 200053Z 13004KT 10SM SCT250 18/13 A3017 RMK AO2 SLP219 T01780133
KLIT 192353Z 16005KT 10SM SCT250 21/13 A3016 RMK AO2 SLP214 T02060133 10261 20206 55002
KLIT 192253Z 18004KT 10SM BKN250 24/12 A3015 RMK AO2 SLP212 T02440117
KLIT 192153Z 17004KT 10SM BKN250 24/12 A3015 RMK AO2 SLP212 T02440122
KLIT 192053Z 17004KT 10SM BKN250 26/11 A3016 RMK AO2 SLP216 T02610111 56019